createdAt,value
2018-11-12T00:00:08.678Z,0.00
2018-11-12T00:01:08.622Z,0.00
2018-11-12T00:03:01.941Z,0.00
2018-11-12T00:04:01.876Z,0.00
2018-11-12T00:05:55.182Z,0.00
2018-11-12T00:06:55.161Z,0.00
2018-11-12T00:08:48.466Z,0.00
2018-11-12T00:09:48.417Z,0.00
2018-11-12T00:11:41.737Z,0.00
2018-11-12T00:12:41.689Z,0.00
2018-11-12T00:14:35.003Z,0.00
2018-11-12T00:15:34.953Z,0.00
2018-11-12T00:17:28.233Z,0.00
2018-11-12T00:18:28.208Z,0.00
2018-11-12T00:20:21.542Z,0.00
2018-11-12T00:21:21.487Z,0.00
2018-11-12T00:23:14.801Z,0.00
2018-11-12T00:24:14.753Z,0.00
2018-11-12T00:26:08.064Z,0.00
2018-11-12T00:27:08.012Z,0.00
2018-11-12T00:29:01.324Z,0.00
2018-11-12T00:30:01.278Z,0.00
2018-11-12T00:31:54.580Z,0.00
2018-11-12T00:32:54.539Z,0.00
2018-11-12T00:34:47.857Z,0.00
2018-11-12T00:35:47.802Z,0.00
2018-11-12T00:37:40.624Z,0.00
2018-11-12T00:38:40.581Z,0.00
2018-11-12T00:40:33.392Z,0.00
2018-11-12T00:41:33.348Z,0.00
2018-11-12T00:43:26.658Z,0.00
2018-11-12T00:44:26.606Z,0.00
2018-11-12T00:46:19.434Z,0.00
2018-11-12T00:47:19.372Z,0.00
2018-11-12T00:49:12.173Z,0.00
2018-11-12T00:50:12.135Z,0.00
2018-11-12T00:52:04.964Z,0.00
2018-11-12T00:53:04.903Z,0.00
2018-11-12T00:54:57.718Z,0.00
2018-11-12T00:55:57.680Z,0.00
2018-11-12T00:57:50.493Z,0.00
2018-11-12T00:58:50.441Z,0.00
2018-11-12T01:00:43.265Z,0.00
2018-11-12T01:01:43.211Z,0.00
2018-11-12T01:03:36.028Z,0.00
2018-11-12T01:04:35.999Z,0.00
2018-11-12T01:06:28.823Z,0.00
2018-11-12T01:07:28.751Z,0.00
2018-11-12T01:09:21.560Z,0.00
2018-11-12T01:10:21.523Z,0.00
2018-11-12T01:12:14.351Z,0.00
2018-11-12T01:13:14.324Z,0.00
2018-11-12T01:15:07.105Z,0.00
2018-11-12T01:16:07.114Z,0.00
2018-11-12T01:18:00.878Z,0.00
2018-11-12T01:19:00.829Z,0.00
2018-11-12T01:20:53.640Z,0.00
2018-11-12T01:21:53.596Z,0.00
2018-11-12T01:23:46.421Z,0.00
2018-11-12T01:24:46.385Z,0.00
2018-11-12T01:26:39.180Z,0.00
2018-11-12T01:27:39.141Z,0.00
2018-11-12T01:29:31.966Z,0.00
2018-11-12T01:30:31.920Z,0.00
2018-11-12T01:32:24.740Z,0.00
2018-11-12T01:33:24.688Z,0.00
2018-11-12T01:35:17.491Z,0.00
2018-11-12T01:36:17.451Z,0.00
2018-11-12T01:38:10.269Z,0.00
2018-11-12T01:39:10.237Z,0.00
2018-11-12T01:41:03.066Z,0.00
2018-11-12T01:42:03.018Z,0.00
2018-11-12T01:43:55.830Z,0.00
2018-11-12T01:44:55.772Z,0.00
2018-11-12T01:46:48.588Z,0.00
2018-11-12T01:47:48.538Z,0.00
2018-11-12T01:49:41.347Z,0.00
2018-11-12T01:50:41.302Z,0.00
2018-11-12T01:52:34.137Z,0.00
2018-11-12T01:53:34.071Z,0.00
2018-11-12T01:55:26.882Z,0.00
2018-11-12T01:56:26.861Z,0.00
2018-11-12T01:58:19.681Z,0.00
2018-11-12T01:59:19.619Z,0.00
2018-11-12T02:01:12.422Z,0.00
2018-11-12T02:02:12.385Z,0.00
2018-11-12T02:04:05.202Z,0.00
2018-11-12T02:05:05.233Z,0.00
2018-11-12T02:06:58.561Z,0.00
2018-11-12T02:07:58.406Z,0.00
2018-11-12T02:09:51.216Z,0.00
2018-11-12T02:10:51.191Z,0.00
2018-11-12T02:12:43.973Z,0.00
2018-11-12T02:13:43.941Z,0.00
2018-11-12T02:15:36.754Z,0.00
2018-11-12T02:16:36.707Z,0.00
2018-11-12T02:18:30.057Z,0.00
2018-11-12T02:19:29.997Z,0.00
2018-11-12T02:21:22.806Z,0.00
2018-11-12T02:22:22.818Z,0.00
2018-11-12T02:24:15.606Z,0.00
2018-11-12T02:25:15.551Z,0.00
2018-11-12T02:27:08.365Z,0.00
2018-11-12T02:28:08.292Z,0.00
2018-11-12T02:30:01.616Z,0.00
2018-11-12T02:31:01.570Z,0.00
2018-11-12T02:32:54.363Z,0.00
2018-11-12T02:33:54.323Z,0.00
2018-11-12T02:35:47.643Z,0.00
2018-11-12T02:36:47.593Z,0.00
2018-11-12T02:38:40.905Z,0.00
2018-11-12T02:39:40.862Z,0.00
2018-11-12T02:41:34.164Z,0.00
2018-11-12T02:42:34.131Z,0.00
2018-11-12T02:44:26.950Z,0.00
2018-11-12T02:45:26.895Z,0.00
2018-11-12T02:47:19.730Z,0.00
2018-11-12T02:48:19.672Z,0.00
2018-11-12T02:50:12.508Z,0.00
2018-11-12T02:51:12.439Z,0.00
2018-11-12T02:53:05.247Z,0.00
2018-11-12T02:54:05.203Z,0.00
2018-11-12T02:55:58.023Z,0.00
2018-11-12T02:56:57.968Z,0.00
2018-11-12T02:58:50.783Z,0.00
2018-11-12T02:59:50.748Z,0.00
2018-11-12T03:01:43.564Z,0.00
2018-11-12T03:02:43.521Z,0.00
2018-11-12T03:04:36.324Z,0.00
2018-11-12T03:05:36.275Z,0.00
2018-11-12T03:07:29.700Z,0.00
2018-11-12T03:08:29.540Z,0.00
2018-11-12T03:10:22.838Z,0.00
2018-11-12T03:11:22.818Z,0.00
2018-11-12T03:13:15.644Z,0.00
2018-11-12T03:14:15.569Z,0.00
2018-11-12T03:16:08.384Z,0.00
2018-11-12T03:17:08.977Z,0.00
2018-11-12T03:19:01.153Z,0.00
2018-11-12T03:20:01.121Z,0.00
2018-11-12T03:21:53.935Z,0.00
2018-11-12T03:22:53.941Z,0.00
2018-11-12T03:24:46.689Z,0.00
2018-11-12T03:25:46.664Z,0.00
2018-11-12T03:27:39.501Z,0.00
2018-11-12T03:28:39.419Z,0.00
2018-11-12T03:30:32.222Z,0.00
2018-11-12T03:31:32.185Z,0.00
2018-11-12T03:33:25.505Z,0.00
2018-11-12T03:34:25.452Z,0.00
2018-11-12T03:36:18.261Z,0.00
2018-11-12T03:37:18.211Z,0.00
2018-11-12T03:39:11.031Z,0.00
2018-11-12T03:40:10.991Z,0.00
2018-11-12T03:42:04.312Z,0.00
2018-11-12T03:43:04.251Z,0.00
2018-11-12T03:44:58.577Z,0.00
2018-11-12T03:45:58.532Z,0.00
2018-11-12T03:47:51.349Z,0.00
2018-11-12T03:48:51.295Z,0.00
2018-11-12T03:50:44.629Z,0.00
2018-11-12T03:51:44.563Z,0.00
2018-11-12T03:53:37.375Z,0.00
2018-11-12T03:54:37.351Z,0.00
2018-11-12T03:56:30.132Z,0.00
2018-11-12T03:57:30.096Z,0.00
2018-11-12T03:59:23.400Z,0.00
2018-11-12T04:00:23.472Z,0.00
2018-11-12T04:02:16.161Z,0.00
2018-11-12T04:03:16.112Z,0.00
2018-11-12T04:05:09.423Z,0.00
2018-11-12T04:06:09.396Z,0.00
2018-11-12T04:08:02.219Z,0.00
2018-11-12T04:09:02.156Z,0.00
2018-11-12T04:10:55.473Z,0.00
2018-11-12T04:11:55.426Z,0.00
2018-11-12T04:13:48.248Z,0.00
2018-11-12T04:14:48.197Z,0.00
2018-11-12T04:16:41.489Z,0.00
2018-11-12T04:17:41.456Z,0.00
2018-11-12T04:19:34.759Z,0.00
2018-11-12T04:20:34.716Z,0.00
2018-11-12T04:22:28.018Z,0.00
2018-11-12T04:23:27.981Z,0.00
2018-11-12T04:25:22.303Z,0.00
2018-11-12T04:26:22.259Z,0.00
2018-11-12T04:28:15.592Z,0.00
2018-11-12T04:29:15.522Z,0.00
2018-11-12T04:31:08.329Z,0.00
2018-11-12T04:32:08.288Z,0.00
2018-11-12T04:34:01.103Z,0.00
2018-11-12T04:35:01.063Z,0.00
2018-11-12T04:36:53.858Z,0.00
2018-11-12T04:37:53.829Z,0.00
2018-11-12T04:39:47.137Z,0.00
2018-11-12T04:40:47.093Z,0.00
2018-11-12T04:42:39.923Z,0.00
2018-11-12T04:43:39.888Z,0.00
2018-11-12T04:45:32.742Z,0.00
2018-11-12T04:46:32.648Z,0.00
2018-11-12T04:48:25.448Z,0.00
2018-11-12T04:49:25.424Z,0.00
2018-11-12T04:51:18.229Z,0.00
2018-11-12T04:52:18.184Z,0.00
2018-11-12T04:54:10.995Z,0.00
2018-11-12T04:55:11.005Z,0.00
2018-11-12T04:57:03.749Z,0.00
2018-11-12T04:58:03.719Z,0.00
2018-11-12T04:59:57.041Z,0.00
2018-11-12T05:00:56.993Z,0.00
2018-11-12T05:02:49.794Z,0.00
2018-11-12T05:03:49.764Z,0.00
2018-11-12T05:05:42.608Z,0.00
2018-11-12T05:06:42.529Z,0.00
2018-11-12T05:08:35.343Z,0.00
2018-11-12T05:09:35.309Z,0.00
2018-11-12T05:11:28.108Z,0.00
2018-11-12T05:12:28.069Z,0.00
2018-11-12T05:14:20.878Z,0.00
2018-11-12T05:15:20.837Z,0.00
2018-11-12T05:17:13.656Z,0.00
2018-11-12T05:18:13.605Z,0.00
2018-11-12T05:20:06.405Z,0.00
2018-11-12T05:21:06.391Z,0.00
2018-11-12T05:22:59.203Z,0.00
2018-11-12T05:23:59.142Z,0.00
2018-11-12T05:25:51.991Z,0.00
2018-11-12T05:26:51.911Z,0.00
2018-11-12T05:28:44.716Z,0.00
2018-11-12T05:29:44.681Z,0.00
2018-11-12T05:31:38.006Z,0.00
2018-11-12T05:32:37.961Z,0.00
2018-11-12T05:34:30.760Z,0.00
2018-11-12T05:35:30.724Z,0.00
2018-11-12T05:37:23.541Z,0.00
2018-11-12T05:38:23.658Z,0.00
2018-11-12T05:40:16.282Z,0.00
2018-11-12T05:41:16.263Z,0.00
2018-11-12T05:43:09.074Z,0.00
2018-11-12T05:44:09.027Z,0.00
2018-11-12T05:46:01.854Z,0.00
2018-11-12T05:47:01.804Z,0.00
2018-11-12T05:48:54.631Z,0.00
2018-11-12T05:49:54.580Z,0.00
2018-11-12T05:51:47.390Z,0.00
2018-11-12T05:52:47.331Z,0.00
2018-11-12T05:54:40.146Z,0.00
2018-11-12T05:55:40.101Z,0.00
2018-11-12T05:57:32.921Z,0.00
2018-11-12T05:58:32.873Z,0.00
2018-11-12T06:00:25.730Z,0.00
2018-11-12T06:01:25.692Z,0.00
2018-11-12T06:03:18.502Z,0.00
2018-11-12T06:04:18.451Z,0.00
2018-11-12T06:06:11.267Z,0.00
2018-11-12T06:07:11.221Z,0.00
2018-11-12T06:09:04.051Z,0.00
2018-11-12T06:10:04.001Z,0.00
2018-11-12T06:11:58.302Z,0.00
2018-11-12T06:12:58.258Z,0.00
2018-11-12T06:14:51.081Z,0.00
2018-11-12T06:15:51.044Z,0.00
2018-11-12T06:17:43.842Z,0.00
2018-11-12T06:18:43.806Z,0.00
2018-11-12T06:20:36.643Z,0.00
2018-11-12T06:21:36.568Z,0.00
2018-11-12T06:23:29.386Z,0.00
2018-11-12T06:24:29.341Z,0.00
2018-11-12T06:26:22.188Z,0.00
2018-11-12T06:27:22.116Z,0.00
2018-11-12T06:29:14.937Z,0.00
2018-11-12T06:30:14.884Z,0.00
2018-11-12T06:32:07.687Z,0.00
2018-11-12T06:33:07.643Z,0.00
2018-11-12T06:35:00.478Z,0.00
2018-11-12T06:36:00.428Z,0.00
2018-11-12T06:37:53.237Z,0.00
2018-11-12T06:38:53.193Z,0.00
2018-11-12T06:40:46.005Z,0.00
2018-11-12T06:41:45.958Z,0.00
2018-11-12T06:43:38.772Z,0.00
2018-11-12T06:44:38.727Z,0.00
2018-11-12T06:46:31.548Z,0.00
2018-11-12T06:47:31.490Z,0.00
2018-11-12T06:49:24.310Z,0.00
2018-11-12T06:50:24.258Z,0.00
2018-11-12T06:52:17.064Z,0.00
2018-11-12T06:53:17.045Z,0.00
2018-11-12T06:55:09.843Z,0.00
2018-11-12T06:56:09.800Z,0.00
2018-11-12T06:58:02.596Z,0.00
2018-11-12T06:59:02.569Z,0.00
2018-11-12T07:00:55.445Z,0.00
2018-11-12T07:01:55.341Z,0.00
2018-11-12T07:03:48.130Z,0.00
2018-11-12T07:04:48.102Z,0.00
2018-11-12T07:06:40.957Z,0.00
2018-11-12T07:07:40.874Z,5.63
2018-11-12T07:09:34.171Z,5.63
2018-11-12T07:10:34.143Z,5.63
2018-11-12T07:12:26.949Z,5.63
2018-11-12T07:13:26.978Z,5.63
2018-11-12T07:15:20.226Z,5.63
2018-11-12T07:16:20.166Z,5.63
2018-11-12T07:18:12.975Z,5.63
2018-11-12T07:19:12.934Z,5.63
2018-11-12T07:21:05.760Z,5.63
2018-11-12T07:22:05.704Z,5.63
2018-11-12T07:23:58.514Z,5.63
2018-11-12T07:24:58.481Z,5.63
2018-11-12T07:26:51.294Z,5.63
2018-11-12T07:27:51.246Z,5.63
2018-11-12T07:29:44.041Z,5.63
2018-11-12T07:30:44.026Z,5.63
2018-11-12T07:32:36.827Z,11.25
2018-11-12T07:33:36.772Z,11.25
2018-11-12T07:35:30.078Z,11.25
2018-11-12T07:36:30.035Z,11.25
2018-11-12T07:38:22.865Z,11.25
2018-11-12T07:39:22.807Z,11.25
2018-11-12T07:41:16.126Z,11.25
2018-11-12T07:42:16.071Z,5.63
2018-11-12T07:44:08.882Z,5.63
2018-11-12T07:45:08.855Z,5.63
2018-11-12T07:47:01.662Z,5.63
2018-11-12T07:48:01.625Z,5.63
2018-11-12T07:49:54.431Z,5.63
2018-11-12T07:50:54.385Z,5.63
2018-11-12T07:52:47.208Z,5.63
2018-11-12T07:53:47.156Z,5.63
2018-11-12T07:55:39.955Z,5.63
2018-11-12T07:56:39.923Z,5.63
2018-11-12T07:58:32.742Z,5.63
2018-11-12T07:59:32.692Z,5.63
2018-11-12T08:01:25.512Z,5.63
2018-11-12T08:02:25.466Z,5.63
2018-11-12T08:04:18.285Z,5.63
2018-11-12T08:05:18.253Z,11.25
2018-11-12T08:07:11.061Z,5.63
2018-11-12T08:08:10.998Z,11.25
2018-11-12T08:10:04.373Z,11.25
2018-11-12T08:11:04.271Z,11.25
2018-11-12T08:12:57.083Z,11.25
2018-11-12T08:13:57.042Z,16.88
2018-11-12T08:15:49.948Z,16.88
2018-11-12T08:16:49.806Z,16.88
2018-11-12T08:18:42.676Z,16.88
2018-11-12T08:19:42.564Z,16.88
2018-11-12T08:21:35.468Z,16.88
2018-11-12T08:22:35.338Z,22.50
2018-11-12T08:24:28.188Z,22.50
2018-11-12T08:25:28.109Z,16.88
2018-11-12T08:27:21.016Z,16.88
2018-11-12T08:28:20.893Z,16.88
2018-11-12T08:30:13.781Z,16.88
2018-11-12T08:31:13.662Z,16.88
2018-11-12T08:33:06.487Z,22.50
2018-11-12T08:34:06.418Z,22.50
2018-11-12T08:35:59.290Z,22.50
2018-11-12T08:36:59.184Z,22.50
2018-11-12T08:38:52.021Z,28.13
2018-11-12T08:39:52.031Z,28.13
2018-11-12T08:41:44.774Z,28.13
2018-11-12T08:42:44.727Z,28.13
2018-11-12T08:44:37.553Z,33.75
2018-11-12T08:45:37.494Z,33.75
2018-11-12T08:47:30.309Z,39.38
2018-11-12T08:48:30.326Z,39.38
2018-11-12T08:50:23.084Z,39.38
2018-11-12T08:51:23.039Z,33.75
2018-11-12T08:53:15.828Z,39.38
2018-11-12T08:54:15.799Z,45.00
2018-11-12T08:56:08.632Z,45.00
2018-11-12T08:57:08.565Z,39.38
2018-11-12T08:59:01.390Z,33.75
2018-11-12T09:00:01.339Z,33.75
2018-11-12T09:01:54.159Z,33.75
2018-11-12T09:02:54.126Z,33.75
2018-11-12T09:04:46.924Z,50.63
2018-11-12T09:05:46.932Z,50.63
2018-11-12T09:07:39.704Z,61.88
2018-11-12T09:08:39.678Z,56.25
2018-11-12T09:10:32.971Z,56.25
2018-11-12T09:11:32.923Z,61.88
2018-11-12T09:13:25.725Z,56.25
2018-11-12T09:14:25.693Z,39.38
2018-11-12T09:16:18.519Z,39.38
2018-11-12T09:17:18.466Z,39.38
2018-11-12T09:19:11.277Z,61.88
2018-11-12T09:20:11.240Z,67.50
2018-11-12T09:22:04.068Z,56.25
2018-11-12T09:23:04.005Z,61.88
2018-11-12T09:24:56.820Z,50.63
2018-11-12T09:25:56.769Z,50.63
2018-11-12T09:27:49.601Z,736.88
2018-11-12T09:28:49.549Z,843.75
2018-11-12T09:30:44.139Z,298.13
2018-11-12T09:31:42.821Z,551.25
2018-11-12T09:33:35.681Z,523.13
2018-11-12T09:34:35.608Z,348.75
2018-11-12T09:36:28.459Z,264.38
2018-11-12T09:37:28.429Z,388.13
2018-11-12T09:39:21.689Z,736.88
2018-11-12T09:40:21.659Z,450.00
2018-11-12T09:42:15.004Z,810.00
2018-11-12T09:43:14.959Z,798.75
2018-11-12T09:45:07.765Z,720.00
2018-11-12T09:46:07.794Z,748.13
2018-11-12T09:48:00.649Z,281.25
2018-11-12T09:49:00.548Z,483.75
2018-11-12T09:50:53.321Z,759.38
2018-11-12T09:51:53.316Z,742.50
2018-11-12T09:53:46.283Z,478.13
2018-11-12T09:54:46.137Z,506.25
2018-11-12T09:56:39.417Z,624.38
2018-11-12T09:57:39.375Z,270.00
2018-11-12T09:59:32.277Z,438.75
2018-11-12T10:00:32.406Z,545.63
2018-11-12T10:02:25.831Z,270.00
2018-11-12T10:03:25.902Z,140.63
2018-11-12T10:05:19.458Z,78.75
2018-11-12T10:06:19.707Z,84.38
2018-11-12T10:08:13.028Z,253.13
2018-11-12T10:09:13.763Z,292.50
2018-11-12T10:11:06.977Z,95.63
2018-11-12T10:12:06.215Z,101.25
2018-11-12T10:14:00.078Z,146.25
2018-11-12T10:14:59.413Z,95.63
2018-11-12T10:16:52.237Z,67.50
2018-11-12T10:17:52.510Z,50.63
2018-11-12T10:19:42.310Z,45.00
2018-11-12T10:20:42.216Z,45.00
2018-11-12T10:22:35.547Z,73.13
2018-11-12T10:23:35.507Z,61.88
2018-11-12T10:25:28.341Z,61.88
2018-11-12T10:26:28.300Z,101.25
2018-11-12T10:28:21.144Z,67.50
2018-11-12T10:29:21.074Z,78.75
2018-11-12T10:31:14.384Z,106.88
2018-11-12T10:32:14.348Z,95.63
2018-11-12T10:34:07.753Z,84.38
2018-11-12T10:35:07.648Z,61.88
2018-11-12T10:37:00.452Z,67.50
2018-11-12T10:38:00.433Z,73.13
2018-11-12T10:39:53.249Z,67.50
2018-11-12T10:40:53.253Z,56.25
2018-11-12T10:42:46.103Z,78.75
2018-11-12T10:43:46.013Z,90.00
2018-11-12T10:45:38.810Z,84.38
2018-11-12T10:46:38.769Z,78.75
2018-11-12T10:48:32.161Z,67.50
2018-11-12T10:49:32.044Z,73.13
2018-11-12T10:51:24.889Z,73.13
2018-11-12T10:52:24.808Z,67.50
2018-11-12T10:54:17.753Z,84.38
2018-11-12T10:55:17.750Z,95.63
2018-11-12T10:57:10.414Z,112.50
2018-11-12T10:58:10.383Z,84.38
2018-11-12T11:00:03.250Z,56.25
2018-11-12T11:01:03.165Z,50.63
2018-11-12T11:02:56.488Z,45.00
2018-11-12T11:03:56.443Z,50.63
2018-11-12T11:05:49.267Z,45.00
2018-11-12T11:06:49.229Z,33.75
2018-11-12T11:08:42.041Z,78.75
2018-11-12T11:09:42.009Z,56.25
2018-11-12T11:11:35.319Z,39.38
2018-11-12T11:12:35.274Z,67.50
2018-11-12T11:14:28.086Z,50.63
2018-11-12T11:15:28.086Z,56.25
2018-11-12T11:17:20.886Z,78.75
2018-11-12T11:18:20.836Z,50.63
2018-11-12T11:20:13.676Z,39.38
2018-11-12T11:21:13.680Z,56.25
2018-11-12T11:23:06.436Z,56.25
2018-11-12T11:24:06.400Z,33.75
2018-11-12T11:25:59.255Z,67.50
2018-11-12T11:26:59.191Z,95.63
2018-11-12T11:28:52.001Z,90.00
2018-11-12T11:29:51.986Z,95.63
2018-11-12T11:31:44.848Z,61.88
2018-11-12T11:32:44.749Z,56.25
2018-11-12T11:34:37.581Z,90.00
2018-11-12T11:35:37.549Z,61.88
2018-11-12T11:37:30.370Z,433.13
2018-11-12T11:38:30.337Z,455.63
2018-11-12T11:40:23.286Z,129.38
2018-11-12T11:41:23.100Z,95.63
2018-11-12T11:43:15.941Z,174.38
2018-11-12T11:44:15.893Z,84.38
2018-11-12T11:46:08.782Z,67.50
2018-11-12T11:47:08.721Z,61.88
2018-11-12T11:49:01.647Z,45.00
2018-11-12T11:50:01.576Z,22.50
2018-11-12T11:51:54.801Z,22.50
2018-11-12T11:52:54.788Z,33.75
2018-11-12T11:54:47.556Z,22.50
2018-11-12T11:55:47.531Z,22.50
2018-11-12T11:57:40.534Z,22.50
2018-11-12T11:58:40.321Z,28.13
2018-11-12T12:00:33.162Z,22.50
2018-11-12T12:01:33.148Z,22.50
2018-11-12T12:03:25.942Z,22.50
2018-11-12T12:04:25.897Z,22.50
2018-11-12T12:06:18.701Z,22.50
2018-11-12T12:07:18.678Z,28.13
2018-11-12T12:09:12.071Z,33.75
2018-11-12T12:10:11.961Z,33.75
2018-11-12T12:12:04.783Z,50.63
2018-11-12T12:13:04.753Z,56.25
2018-11-12T12:14:57.590Z,56.25
2018-11-12T12:15:57.522Z,45.00
2018-11-12T12:17:50.362Z,39.38
2018-11-12T12:18:50.342Z,33.75
2018-11-12T12:20:43.148Z,39.38
2018-11-12T12:21:43.108Z,56.25
2018-11-12T12:23:36.428Z,67.50
2018-11-12T12:24:36.517Z,73.13
2018-11-12T12:26:29.208Z,45.00
2018-11-12T12:27:29.178Z,33.75
2018-11-12T12:29:22.003Z,22.50
2018-11-12T12:30:21.959Z,22.50
2018-11-12T12:32:14.794Z,16.88
2018-11-12T12:33:14.747Z,16.88
2018-11-12T12:35:07.564Z,11.25
2018-11-12T12:36:07.557Z,11.25
2018-11-12T12:38:00.328Z,22.50
2018-11-12T12:39:00.309Z,28.13
2018-11-12T12:40:53.139Z,16.88
2018-11-12T12:41:53.100Z,11.25
2018-11-12T12:43:45.925Z,11.25
2018-11-12T12:44:45.980Z,11.25
2018-11-12T12:46:38.670Z,16.88
2018-11-12T12:47:38.654Z,11.25
2018-11-12T12:49:31.516Z,11.25
2018-11-12T12:50:31.425Z,11.25
2018-11-12T12:52:24.240Z,16.88
2018-11-12T12:53:24.209Z,11.25
2018-11-12T12:55:17.076Z,11.25
2018-11-12T12:56:17.043Z,11.25
2018-11-12T12:58:09.849Z,5.63
2018-11-12T12:59:09.789Z,5.63
2018-11-12T13:01:02.594Z,5.63
2018-11-12T13:02:02.579Z,5.63
2018-11-12T13:03:55.385Z,11.25
2018-11-12T13:04:55.357Z,11.25
2018-11-12T13:06:48.150Z,5.63
2018-11-12T13:07:48.096Z,5.63
2018-11-12T13:09:40.935Z,5.63
2018-11-12T13:10:40.877Z,5.63
2018-11-12T13:12:33.691Z,11.25
2018-11-12T13:13:33.672Z,11.25
2018-11-12T13:15:26.480Z,5.63
2018-11-12T13:16:26.434Z,5.63
2018-11-12T13:18:19.247Z,5.63
2018-11-12T13:19:19.230Z,5.63
2018-11-12T13:21:12.092Z,5.63
2018-11-12T13:22:11.982Z,5.63
2018-11-12T13:24:04.821Z,5.63
2018-11-12T13:25:04.777Z,5.63
2018-11-12T13:26:57.597Z,5.63
2018-11-12T13:27:57.571Z,5.63
2018-11-12T13:29:50.429Z,5.63
2018-11-12T13:30:50.342Z,11.25
2018-11-12T13:32:43.147Z,22.50
2018-11-12T13:33:43.092Z,22.50
2018-11-12T13:35:35.936Z,16.88
2018-11-12T13:36:35.882Z,16.88
2018-11-12T13:38:29.227Z,11.25
2018-11-12T13:39:29.211Z,11.25
2018-11-12T13:41:21.975Z,5.63
2018-11-12T13:42:21.946Z,5.63
2018-11-12T13:44:15.798Z,11.25
2018-11-12T13:45:15.695Z,11.25
2018-11-12T13:47:08.533Z,16.88
2018-11-12T13:48:08.473Z,11.25
2018-11-12T13:50:01.291Z,16.88
2018-11-12T13:51:01.231Z,16.88
2018-11-12T13:52:54.076Z,16.88
2018-11-12T13:53:54.021Z,16.88
2018-11-12T13:55:46.843Z,16.88
2018-11-12T13:56:46.828Z,11.25
2018-11-12T13:58:39.627Z,11.25
2018-11-12T13:59:39.578Z,11.25
2018-11-12T14:01:32.422Z,11.25
2018-11-12T14:02:32.363Z,11.25
2018-11-12T14:04:25.193Z,11.25
2018-11-12T14:05:25.139Z,11.25
2018-11-12T14:07:18.164Z,11.25
2018-11-12T14:08:18.117Z,11.25
2018-11-12T14:10:10.919Z,11.25
2018-11-12T14:11:10.882Z,11.25
2018-11-12T14:13:03.703Z,5.63
2018-11-12T14:14:03.666Z,5.63
2018-11-12T14:15:56.478Z,11.25
2018-11-12T14:16:56.453Z,11.25
2018-11-12T14:18:49.257Z,11.25
2018-11-12T14:19:49.210Z,11.25
2018-11-12T14:21:42.134Z,11.25
2018-11-12T14:22:41.980Z,11.25
2018-11-12T14:24:34.792Z,11.25
2018-11-12T14:25:34.742Z,11.25
2018-11-12T14:27:27.593Z,11.25
2018-11-12T14:28:27.636Z,11.25
2018-11-12T14:30:20.387Z,11.25
2018-11-12T14:31:20.341Z,5.63
2018-11-12T14:33:13.201Z,5.63
2018-11-12T14:34:13.127Z,5.63
2018-11-12T14:36:05.916Z,5.63
2018-11-12T14:37:05.869Z,5.63
2018-11-12T14:38:58.683Z,5.63
2018-11-12T14:39:58.638Z,5.63
2018-11-12T14:41:51.448Z,5.63
2018-11-12T14:42:51.405Z,5.63
2018-11-12T14:44:44.224Z,5.63
2018-11-12T14:45:44.169Z,11.25
2018-11-12T14:47:36.985Z,11.25
2018-11-12T14:48:36.945Z,11.25
2018-11-12T14:50:29.771Z,11.25
2018-11-12T14:51:29.724Z,11.25
2018-11-12T14:53:22.533Z,11.25
2018-11-12T14:54:22.494Z,11.25
2018-11-12T14:56:15.796Z,11.25
2018-11-12T14:57:15.750Z,11.25
2018-11-12T14:59:08.570Z,11.25
2018-11-12T15:00:08.530Z,11.25
2018-11-12T15:02:01.827Z,5.63
2018-11-12T15:03:01.810Z,5.63
2018-11-12T15:04:54.612Z,5.63
2018-11-12T15:05:54.559Z,5.63
2018-11-12T15:07:47.375Z,5.63
2018-11-12T15:08:47.335Z,0.00
2018-11-12T15:10:40.146Z,0.00
2018-11-12T15:11:40.101Z,0.00
2018-11-12T15:13:32.931Z,0.00
2018-11-12T15:14:32.902Z,0.00
2018-11-12T15:16:25.710Z,0.00
2018-11-12T15:17:25.645Z,0.00
2018-11-12T15:19:18.476Z,0.00
2018-11-12T15:20:18.416Z,0.00
2018-11-12T15:22:11.231Z,0.00
2018-11-12T15:23:11.184Z,0.00
2018-11-12T15:25:04.531Z,0.00
2018-11-12T15:26:04.452Z,0.00
2018-11-12T15:27:57.268Z,0.00
2018-11-12T15:28:57.238Z,0.00
2018-11-12T15:30:50.041Z,0.00
2018-11-12T15:31:50.000Z,0.00
2018-11-12T15:33:42.792Z,0.00
2018-11-12T15:34:42.765Z,0.00
2018-11-12T15:36:35.602Z,0.00
2018-11-12T15:37:35.555Z,0.00
2018-11-12T15:39:28.352Z,0.00
2018-11-12T15:40:28.317Z,0.00
2018-11-12T15:42:21.153Z,0.00
2018-11-12T15:43:21.185Z,0.00
2018-11-12T15:45:13.910Z,0.00
2018-11-12T15:46:13.866Z,0.00
2018-11-12T15:48:06.667Z,0.00
2018-11-12T15:49:06.632Z,0.00
2018-11-12T15:50:59.548Z,0.00
2018-11-12T15:51:59.390Z,0.00
2018-11-12T15:53:52.202Z,0.00
2018-11-12T15:54:52.167Z,0.00
2018-11-12T15:56:44.992Z,0.00
2018-11-12T15:57:45.051Z,0.00
2018-11-12T15:59:37.751Z,0.00
2018-11-12T16:00:37.714Z,0.00
2018-11-12T16:02:30.547Z,0.00
2018-11-12T16:03:30.490Z,0.00
2018-11-12T16:05:23.302Z,0.00
2018-11-12T16:06:23.305Z,0.00
2018-11-12T16:08:16.107Z,0.00
2018-11-12T16:09:16.043Z,0.00
2018-11-12T16:11:08.892Z,0.00
2018-11-12T16:12:08.920Z,0.00
2018-11-12T16:14:01.629Z,0.00
2018-11-12T16:15:01.584Z,0.00
2018-11-12T16:16:54.418Z,0.00
2018-11-12T16:17:54.376Z,0.00
2018-11-12T16:19:47.168Z,0.00
2018-11-12T16:20:47.143Z,0.00
2018-11-12T16:22:39.988Z,0.00
2018-11-12T16:23:39.899Z,0.00
2018-11-12T16:25:32.746Z,0.00
2018-11-12T16:26:32.720Z,0.00
2018-11-12T16:28:25.493Z,0.00
2018-11-12T16:29:25.463Z,0.00
2018-11-12T16:31:18.252Z,0.00
2018-11-12T16:32:18.224Z,0.00
2018-11-12T16:34:11.039Z,0.00
2018-11-12T16:35:10.983Z,0.00
2018-11-12T16:37:03.807Z,0.00
2018-11-12T16:38:03.750Z,0.00
2018-11-12T16:39:56.579Z,0.00
2018-11-12T16:40:56.520Z,0.00
2018-11-12T16:42:49.342Z,0.00
2018-11-12T16:43:49.288Z,0.00
2018-11-12T16:45:42.115Z,0.00
2018-11-12T16:46:42.086Z,0.00
2018-11-12T16:48:34.908Z,0.00
2018-11-12T16:49:34.843Z,0.00
2018-11-12T16:51:27.648Z,0.00
2018-11-12T16:52:27.608Z,0.00
2018-11-12T16:54:20.433Z,0.00
2018-11-12T16:55:20.392Z,0.00
2018-11-12T16:57:13.187Z,0.00
2018-11-12T16:58:13.153Z,0.00
2018-11-12T17:00:05.963Z,0.00
2018-11-12T17:01:05.960Z,0.00
2018-11-12T17:02:58.731Z,0.00
2018-11-12T17:03:58.690Z,0.00
2018-11-12T17:05:51.546Z,0.00
2018-11-12T17:06:51.476Z,0.00
2018-11-12T17:08:44.281Z,0.00
2018-11-12T17:09:44.235Z,0.00
2018-11-12T17:11:37.103Z,0.00
2018-11-12T17:12:37.014Z,0.00
2018-11-12T17:14:29.830Z,0.00
2018-11-12T17:15:29.779Z,0.00
2018-11-12T17:17:22.596Z,0.00
2018-11-12T17:18:22.556Z,0.00
2018-11-12T17:20:15.387Z,0.00
2018-11-12T17:21:15.332Z,0.00
2018-11-12T17:23:08.253Z,0.00
2018-11-12T17:24:08.101Z,0.00
2018-11-12T17:26:00.930Z,0.00
2018-11-12T17:27:00.880Z,0.00
2018-11-12T17:28:53.682Z,0.00
2018-11-12T17:29:53.652Z,0.00
2018-11-12T17:31:46.468Z,0.00
2018-11-12T17:32:46.433Z,0.00
2018-11-12T17:34:39.220Z,0.00
2018-11-12T17:35:39.177Z,0.00
2018-11-12T17:37:32.495Z,0.00
2018-11-12T17:38:32.453Z,0.00
2018-11-12T17:40:25.778Z,0.00
2018-11-12T17:41:25.720Z,0.00
2018-11-12T17:43:19.090Z,0.00
2018-11-12T17:44:18.973Z,0.00
2018-11-12T17:46:12.296Z,0.00
2018-11-12T17:47:12.241Z,0.00
2018-11-12T17:49:05.537Z,0.00
2018-11-12T17:50:05.502Z,0.00
2018-11-12T17:51:58.830Z,0.00
2018-11-12T17:52:58.777Z,0.00
2018-11-12T17:54:52.071Z,0.00
2018-11-12T17:55:52.047Z,0.00
2018-11-12T17:57:45.346Z,0.00
2018-11-12T17:58:45.298Z,0.00
2018-11-12T18:00:38.593Z,0.00
2018-11-12T18:01:38.616Z,0.00
2018-11-12T18:03:31.872Z,0.00
2018-11-12T18:04:31.816Z,0.00
2018-11-12T18:06:25.197Z,0.00
2018-11-12T18:07:25.205Z,0.00
2018-11-12T18:09:18.392Z,0.00
2018-11-12T18:10:18.348Z,0.00
2018-11-12T18:12:11.658Z,0.00
2018-11-12T18:13:11.608Z,0.00
2018-11-12T18:15:04.898Z,0.00
2018-11-12T18:16:04.873Z,0.00
2018-11-12T18:17:58.207Z,0.00
2018-11-12T18:18:58.124Z,0.00
2018-11-12T18:20:51.434Z,0.00
2018-11-12T18:21:51.402Z,0.00
2018-11-12T18:23:44.728Z,0.00
2018-11-12T18:24:44.681Z,0.00
2018-11-12T18:26:37.481Z,0.00
2018-11-12T18:27:37.432Z,0.00
2018-11-12T18:29:30.282Z,0.00
2018-11-12T18:30:30.362Z,0.00
2018-11-12T18:32:23.523Z,0.00
2018-11-12T18:33:23.467Z,0.00
2018-11-12T18:35:16.786Z,0.00
2018-11-12T18:36:16.726Z,0.00
2018-11-12T18:38:10.129Z,0.00
2018-11-12T18:39:09.990Z,0.00
2018-11-12T18:41:03.299Z,0.00
2018-11-12T18:42:03.268Z,0.00
2018-11-12T18:43:56.570Z,0.00
2018-11-12T18:44:56.560Z,0.00
2018-11-12T18:46:49.829Z,0.00
2018-11-12T18:47:49.794Z,0.00
2018-11-12T18:49:43.103Z,0.00
2018-11-12T18:50:43.052Z,0.00
2018-11-12T18:52:36.369Z,0.00
2018-11-12T18:53:36.327Z,0.00
2018-11-12T18:55:29.127Z,0.00